createdAt,value
2019-05-30T00:00:27.781Z,2.80
2019-05-30T00:02:58.612Z,2.90
2019-05-30T00:05:29.004Z,2.87
2019-05-30T00:08:00.332Z,2.70
2019-05-30T00:10:30.823Z,3.35
2019-05-30T00:13:01.207Z,3.12
2019-05-30T00:15:31.558Z,3.62
2019-05-30T00:18:02.898Z,3.40
2019-05-30T00:20:33.361Z,3.12
2019-05-30T00:23:03.743Z,3.10
2019-05-30T00:25:34.106Z,2.80
2019-05-30T00:28:05.134Z,3.27
2019-05-30T00:30:36.647Z,3.45
2019-05-30T00:33:07.161Z,3.70
2019-05-30T00:35:38.521Z,3.40
2019-05-30T00:38:08.894Z,3.70
2019-05-30T00:40:39.263Z,4.28
2019-05-30T00:43:09.644Z,3.30
2019-05-30T00:45:40.003Z,3.45
2019-05-30T00:48:10.431Z,4.10
2019-05-30T00:50:40.798Z,4.10
2019-05-30T00:53:11.185Z,4.50
2019-05-30T00:55:41.532Z,4.50
2019-05-30T00:58:11.912Z,4.35
2019-05-30T01:00:44.326Z,4.67
2019-05-30T01:03:14.874Z,4.08
2019-05-30T01:05:45.221Z,4.50
2019-05-30T01:08:15.606Z,4.20
2019-05-30T01:10:45.957Z,5.05
2019-05-30T01:13:16.337Z,5.08
2019-05-30T01:15:46.682Z,4.67
2019-05-30T01:18:17.090Z,4.50
2019-05-30T01:20:47.448Z,4.55
2019-05-30T01:23:17.832Z,4.72
2019-05-30T01:25:48.189Z,5.05
2019-05-30T01:28:30.550Z,4.62
2019-05-30T01:31:05.585Z,4.93
2019-05-30T01:33:33.965Z,5.12
2019-05-30T01:36:04.324Z,4.58
2019-05-30T01:38:34.712Z,4.35
2019-05-30T01:41:05.926Z,4.67
2019-05-30T01:43:36.419Z,4.33
2019-05-30T01:46:06.767Z,5.08
2019-05-30T01:48:37.146Z,4.42
2019-05-30T01:51:08.608Z,4.83
2019-05-30T01:53:39.155Z,5.08
2019-05-30T01:56:09.519Z,5.33
2019-05-30T01:58:39.897Z,4.47
2019-05-30T02:01:22.617Z,4.50
2019-05-30T02:03:43.292Z,4.85
2019-05-30T02:06:13.658Z,5.12
2019-05-30T02:08:44.039Z,4.95
2019-05-30T02:11:14.392Z,4.37
2019-05-30T02:13:44.847Z,5.30
2019-05-30T02:16:15.214Z,4.72
2019-05-30T02:18:45.592Z,5.05
2019-05-30T02:21:15.952Z,4.28
2019-05-30T02:23:46.317Z,4.80
2019-05-30T02:26:16.680Z,5.08
2019-05-30T02:28:47.052Z,4.53
2019-05-30T02:31:37.302Z,4.97
2019-05-30T02:33:49.625Z,5.05
2019-05-30T02:36:20.076Z,5.10
2019-05-30T02:38:50.546Z,5.55
2019-05-30T02:41:21.017Z,5.35
2019-05-30T02:43:51.378Z,5.40
2019-05-30T02:46:21.749Z,4.70
2019-05-30T02:48:58.784Z,4.87
2019-05-30T02:51:24.277Z,5.28
2019-05-30T02:53:54.662Z,5.40
2019-05-30T02:56:25.009Z,5.37
2019-05-30T02:58:55.404Z,5.95
2019-05-30T03:01:25.761Z,5.72
2019-05-30T03:03:56.161Z,5.35
2019-05-30T03:06:26.962Z,5.30
2019-05-30T03:08:58.377Z,5.30
2019-05-30T03:11:29.345Z,5.28
2019-05-30T03:13:59.797Z,6.12
2019-05-30T03:16:30.162Z,5.83
2019-05-30T03:19:01.935Z,5.15
2019-05-30T03:21:32.362Z,5.33
2019-05-30T03:24:04.947Z,5.15
2019-05-30T03:26:34.800Z,5.58
2019-05-30T03:29:07.086Z,5.30
2019-05-30T03:31:38.335Z,5.45
2019-05-30T03:34:16.957Z,5.22
2019-05-30T03:36:40.845Z,5.40
2019-05-30T03:39:13.098Z,6.00
2019-05-30T03:41:43.281Z,5.35
2019-05-30T03:44:15.501Z,5.08
2019-05-30T03:46:50.345Z,5.95
2019-05-30T03:49:34.524Z,5.20
2019-05-30T03:52:09.919Z,4.90
2019-05-30T03:54:41.984Z,6.33
2019-05-30T03:57:36.798Z,5.08
2019-05-30T04:00:23.834Z,5.42
2019-05-30T04:02:59.488Z,4.85
2019-05-30T04:05:37.074Z,5.17
2019-05-30T04:08:12.362Z,5.75
2019-05-30T04:10:47.750Z,5.20
2019-05-30T04:13:39.853Z,5.17
2019-05-30T04:16:11.069Z,5.37
2019-05-30T04:18:41.546Z,5.33
2019-05-30T04:21:14.180Z,5.03
2019-05-30T04:23:44.014Z,5.78
2019-05-30T04:26:15.867Z,4.95
2019-05-30T04:28:46.508Z,5.42
2019-05-30T04:31:17.714Z,4.78
2019-05-30T04:33:48.962Z,5.62
2019-05-30T04:36:19.434Z,4.92
2019-05-30T04:38:50.864Z,5.30
2019-05-30T04:41:21.264Z,5.20
2019-05-30T04:43:51.621Z,4.70
2019-05-30T04:46:22.238Z,4.53
2019-05-30T04:48:52.724Z,4.37
2019-05-30T04:51:23.108Z,3.80
2019-05-30T04:53:53.478Z,3.67
2019-05-30T04:56:23.875Z,3.65
2019-05-30T04:58:54.238Z,4.08
2019-05-30T05:01:24.611Z,3.40
2019-05-30T05:03:54.985Z,2.95
2019-05-30T05:06:25.383Z,2.98
2019-05-30T05:08:55.741Z,3.33
2019-05-30T05:11:26.126Z,2.85
2019-05-30T05:13:56.506Z,3.05
2019-05-30T05:16:35.370Z,2.87
2019-05-30T05:18:58.970Z,3.10
2019-05-30T05:21:29.357Z,2.80
2019-05-30T05:23:59.728Z,2.52
2019-05-30T05:26:30.120Z,2.72
2019-05-30T05:29:00.495Z,2.77
2019-05-30T05:31:30.883Z,2.83
2019-05-30T05:34:01.256Z,2.98
2019-05-30T05:36:31.653Z,2.47
2019-05-30T05:39:02.048Z,2.95
2019-05-30T05:41:33.413Z,2.45
2019-05-30T05:44:03.778Z,2.33
2019-05-30T05:46:34.166Z,2.35
2019-05-30T05:49:04.601Z,2.33
2019-05-30T05:51:34.979Z,2.10
2019-05-30T05:54:18.872Z,2.02
2019-05-30T05:56:49.809Z,2.10
2019-05-30T05:59:20.982Z,2.10
2019-05-30T06:01:52.406Z,2.20
2019-05-30T06:04:23.261Z,2.10
2019-05-30T06:06:53.744Z,2.30
2019-05-30T06:09:24.650Z,1.98
2019-05-30T06:11:55.097Z,1.87
2019-05-30T06:14:26.429Z,1.87
2019-05-30T06:16:56.812Z,2.00
2019-05-30T06:19:27.534Z,1.77
2019-05-30T06:21:57.960Z,1.70
2019-05-30T06:24:28.489Z,1.90
2019-05-30T06:26:58.884Z,1.72
2019-05-30T06:29:29.246Z,1.60
2019-05-30T06:31:59.623Z,1.75
2019-05-30T06:34:38.998Z,1.57
2019-05-30T06:37:03.057Z,2.10
2019-05-30T06:39:33.436Z,1.57
2019-05-30T06:42:03.830Z,1.70
2019-05-30T06:44:34.364Z,1.15
2019-05-30T06:47:04.749Z,1.57
2019-05-30T06:49:35.112Z,1.37
2019-05-30T06:52:05.621Z,1.50
2019-05-30T06:54:36.047Z,1.40
2019-05-30T06:57:06.486Z,1.22
2019-05-30T06:59:36.890Z,1.40
2019-05-30T07:02:07.277Z,1.70
2019-05-30T07:04:51.014Z,2.08
2019-05-30T07:07:09.891Z,1.32
2019-05-30T07:09:40.383Z,1.20
2019-05-30T07:12:12.031Z,1.20
2019-05-30T07:14:43.480Z,1.10
2019-05-30T07:17:13.941Z,1.05
2019-05-30T07:19:44.392Z,0.98
2019-05-30T07:22:14.760Z,1.00
2019-05-30T07:24:45.140Z,0.88
2019-05-30T07:27:15.566Z,1.05
2019-05-30T07:29:45.956Z,1.02
2019-05-30T07:32:16.330Z,0.95
2019-05-30T07:34:46.725Z,1.02
2019-05-30T07:37:17.083Z,0.78
2019-05-30T07:39:48.565Z,2.67
2019-05-30T07:42:18.926Z,1.17
2019-05-30T07:44:50.398Z,0.68
2019-05-30T07:47:20.767Z,0.82
2019-05-30T07:49:51.151Z,0.88
2019-05-30T07:52:21.522Z,0.60
2019-05-30T07:54:51.912Z,1.00
2019-05-30T07:57:22.273Z,0.80
2019-05-30T07:59:52.678Z,0.88
2019-05-30T08:02:23.039Z,0.60
2019-05-30T08:04:56.579Z,0.70
2019-05-30T08:07:26.938Z,0.82
2019-05-30T08:09:57.330Z,0.70
2019-05-30T08:12:27.978Z,0.90
2019-05-30T08:14:58.482Z,0.60
2019-05-30T08:17:29.509Z,0.80
2019-05-30T08:19:59.904Z,0.60
2019-05-30T08:22:30.269Z,0.82
2019-05-30T08:25:00.650Z,0.85
2019-05-30T08:27:32.338Z,0.70
2019-05-30T08:30:02.839Z,0.57
2019-05-30T08:32:33.189Z,0.80
2019-05-30T08:35:05.476Z,0.68
2019-05-30T08:37:36.996Z,0.65
2019-05-30T08:40:10.567Z,0.70
2019-05-30T08:42:40.936Z,0.65
2019-05-30T08:45:12.331Z,0.57
2019-05-30T08:47:42.693Z,0.70
2019-05-30T08:50:13.726Z,0.62
2019-05-30T08:52:44.102Z,0.50
2019-05-30T08:55:16.101Z,0.80
2019-05-30T08:57:46.463Z,0.70
2019-05-30T09:00:17.775Z,0.40
2019-05-30T09:02:48.179Z,0.70
2019-05-30T09:05:18.892Z,0.40
2019-05-30T09:07:49.278Z,0.45
2019-05-30T09:10:19.835Z,0.60
2019-05-30T09:12:50.301Z,0.50
2019-05-30T09:15:22.196Z,0.65
2019-05-30T09:17:53.808Z,0.53
2019-05-30T09:20:24.320Z,0.60
2019-05-30T09:22:54.674Z,0.50
2019-05-30T09:25:25.222Z,0.60
2019-05-30T09:27:55.593Z,0.50
2019-05-30T09:30:26.243Z,0.60
2019-05-30T09:32:56.608Z,0.50
2019-05-30T09:35:27.638Z,0.50
2019-05-30T09:37:58.078Z,1.17
2019-05-30T09:40:42.087Z,0.50
2019-05-30T09:43:12.775Z,0.40
2019-05-30T09:45:43.930Z,0.70
2019-05-30T09:48:14.381Z,0.62
2019-05-30T09:50:45.218Z,0.50
2019-05-30T09:53:15.715Z,0.40
2019-05-30T09:55:46.286Z,0.50
2019-05-30T09:58:17.845Z,0.50
2019-05-30T10:00:48.595Z,0.70
2019-05-30T10:03:20.462Z,0.40
2019-05-30T10:05:50.858Z,0.37
2019-05-30T10:08:22.194Z,0.50
2019-05-30T10:10:53.533Z,0.40
2019-05-30T10:13:24.993Z,0.30
2019-05-30T10:15:56.639Z,0.42
2019-05-30T10:18:27.056Z,0.53
2019-05-30T10:20:57.454Z,0.40
2019-05-30T10:23:27.874Z,0.47
2019-05-30T10:25:58.298Z,0.65
2019-05-30T10:28:28.721Z,0.60
2019-05-30T10:30:59.504Z,0.50
2019-05-30T10:33:30.972Z,0.55
2019-05-30T10:36:01.355Z,0.75
2019-05-30T10:38:31.703Z,0.50
2019-05-30T10:41:02.093Z,0.62
2019-05-30T10:43:32.461Z,0.47
2019-05-30T10:46:02.847Z,0.70
2019-05-30T10:48:33.208Z,0.50
2019-05-30T10:51:03.605Z,0.57
2019-05-30T10:53:37.196Z,0.60
2019-05-30T10:56:06.849Z,0.50
2019-05-30T10:58:37.214Z,0.70
2019-05-30T11:01:07.764Z,0.57
2019-05-30T11:03:38.129Z,0.50
2019-05-30T11:06:40.372Z,0.50
2019-05-30T11:09:14.115Z,0.60
2019-05-30T11:11:44.509Z,0.78
2019-05-30T11:14:15.020Z,0.70
2019-05-30T11:16:47.052Z,0.95
2019-05-30T11:19:18.088Z,0.90
2019-05-30T11:21:49.679Z,0.60
2019-05-30T11:24:20.393Z,0.68
2019-05-30T11:26:52.046Z,1.60
2019-05-30T11:29:22.870Z,0.60
2019-05-30T11:31:53.327Z,0.60
2019-05-30T11:34:24.796Z,0.90
2019-05-30T11:36:55.171Z,0.60
2019-05-30T11:39:25.515Z,0.70
2019-05-30T11:41:55.915Z,1.02
2019-05-30T11:44:26.301Z,0.75
2019-05-30T11:46:57.737Z,0.90
2019-05-30T11:49:28.189Z,0.90
2019-05-30T11:51:59.871Z,0.62
2019-05-30T11:54:30.408Z,0.68
2019-05-30T11:57:00.775Z,0.80
2019-05-30T11:59:31.170Z,0.95
2019-05-30T12:02:01.540Z,0.70
2019-05-30T12:04:31.947Z,0.53
2019-05-30T12:07:02.315Z,0.95
2019-05-30T12:09:32.706Z,0.78
2019-05-30T12:12:03.158Z,0.70
2019-05-30T12:14:33.543Z,0.70
2019-05-30T12:17:03.910Z,0.57
2019-05-30T12:19:34.295Z,0.80
2019-05-30T12:22:04.934Z,0.80
2019-05-30T12:24:35.315Z,0.98
2019-05-30T12:27:06.129Z,0.70
2019-05-30T12:29:36.517Z,0.78
2019-05-30T12:32:07.208Z,0.65
2019-05-30T12:34:37.732Z,0.93
2019-05-30T12:37:08.092Z,0.93
2019-05-30T12:39:38.471Z,0.70
2019-05-30T12:42:08.840Z,0.80
2019-05-30T12:44:39.228Z,0.70
2019-05-30T12:47:09.625Z,0.72
2019-05-30T12:49:40.027Z,0.85
2019-05-30T12:52:10.398Z,0.90
2019-05-30T12:54:40.788Z,0.93
2019-05-30T12:57:11.158Z,0.88
2019-05-30T12:59:41.551Z,0.80
2019-05-30T13:02:11.912Z,1.00
2019-05-30T13:04:42.319Z,0.70
2019-05-30T13:07:12.685Z,0.90
2019-05-30T13:09:43.087Z,0.62
2019-05-30T13:12:13.454Z,0.75
2019-05-30T13:14:43.866Z,0.82
2019-05-30T13:17:14.229Z,0.60
2019-05-30T13:19:44.898Z,0.70
2019-05-30T13:22:15.331Z,0.98
2019-05-30T13:24:45.732Z,0.75
2019-05-30T13:27:16.098Z,0.72
2019-05-30T13:29:47.572Z,0.72
2019-05-30T13:32:17.936Z,1.02
2019-05-30T13:34:48.334Z,0.98
2019-05-30T13:37:18.698Z,1.00
2019-05-30T13:39:49.104Z,0.78
2019-05-30T13:42:19.458Z,1.02
2019-05-30T13:44:49.846Z,0.80
2019-05-30T13:47:20.213Z,0.90
2019-05-30T13:49:50.672Z,0.95
2019-05-30T13:52:21.038Z,1.00
2019-05-30T13:54:51.434Z,1.00
2019-05-30T13:57:21.801Z,0.75
2019-05-30T13:59:52.184Z,0.98
2019-05-30T14:02:22.544Z,0.90
2019-05-30T14:04:52.938Z,0.90
2019-05-30T14:07:23.322Z,0.90
2019-05-30T14:09:53.710Z,0.90
2019-05-30T14:12:24.067Z,1.12
2019-05-30T14:14:54.448Z,1.10
2019-05-30T14:17:24.807Z,1.05
2019-05-30T14:19:56.269Z,1.45
2019-05-30T14:22:26.638Z,0.90
2019-05-30T14:24:57.027Z,1.12
2019-05-30T14:27:27.391Z,0.78
2019-05-30T14:29:57.772Z,0.80
2019-05-30T14:32:28.136Z,1.00
2019-05-30T14:34:58.518Z,1.00
2019-05-30T14:37:28.882Z,1.02
2019-05-30T14:39:59.267Z,1.10
2019-05-30T14:42:29.628Z,1.10
2019-05-30T14:45:00.013Z,1.02
2019-05-30T14:47:30.389Z,1.17
2019-05-30T14:50:00.893Z,1.07
2019-05-30T14:52:31.324Z,1.10
2019-05-30T14:55:01.719Z,1.10
2019-05-30T14:57:32.086Z,0.95
2019-05-30T15:00:02.495Z,1.10
2019-05-30T15:02:32.911Z,8.38
2019-05-30T15:05:03.312Z,6.90
2019-05-30T15:07:33.663Z,2.30
2019-05-30T15:10:06.967Z,2.40
2019-05-30T15:12:37.469Z,1.62
2019-05-30T15:15:20.028Z,1.20
2019-05-30T15:17:50.415Z,0.93
2019-05-30T15:20:20.869Z,1.27
2019-05-30T15:22:51.244Z,1.42
2019-05-30T15:25:21.774Z,3.00
2019-05-30T15:27:52.138Z,1.35
2019-05-30T15:30:22.774Z,1.45
2019-05-30T15:32:53.156Z,4.78
2019-05-30T15:35:23.542Z,5.10
2019-05-30T15:37:53.900Z,3.55
2019-05-30T15:40:24.429Z,3.05
2019-05-30T15:42:54.801Z,1.52
2019-05-30T15:45:25.201Z,1.85
2019-05-30T15:47:55.560Z,2.35
2019-05-30T15:50:26.026Z,2.17
2019-05-30T15:52:56.395Z,1.27
2019-05-30T15:55:26.783Z,1.35
2019-05-30T15:57:57.152Z,2.30
2019-05-30T16:00:27.687Z,1.75
2019-05-30T16:02:58.180Z,2.65
2019-05-30T16:05:28.570Z,1.90
2019-05-30T16:07:58.938Z,1.47
2019-05-30T16:10:29.373Z,2.62
2019-05-30T16:13:00.725Z,3.27
2019-05-30T16:15:31.190Z,2.15
2019-05-30T16:18:01.557Z,1.40
2019-05-30T16:20:32.026Z,1.40
2019-05-30T16:23:02.392Z,1.72
2019-05-30T16:25:32.962Z,1.50
2019-05-30T16:28:03.412Z,1.52
2019-05-30T16:30:34.107Z,1.32
2019-05-30T16:33:04.607Z,1.35
2019-05-30T16:35:34.990Z,1.30
2019-05-30T16:38:06.295Z,1.92
2019-05-30T16:40:37.298Z,1.67
2019-05-30T16:43:08.409Z,1.40
2019-05-30T16:45:42.368Z,1.30
2019-05-30T16:48:14.342Z,1.65
2019-05-30T16:50:45.522Z,1.40
2019-05-30T16:53:17.083Z,1.42
2019-05-30T16:55:48.217Z,1.60
2019-05-30T16:58:20.331Z,1.70
2019-05-30T17:00:51.704Z,2.00
2019-05-30T17:03:24.093Z,1.90
2019-05-30T17:05:55.703Z,1.72
2019-05-30T17:08:26.413Z,1.60
2019-05-30T17:10:57.492Z,1.75
2019-05-30T17:13:31.100Z,1.32
2019-05-30T17:16:00.934Z,1.70
2019-05-30T17:18:31.696Z,1.50
2019-05-30T17:21:02.753Z,1.47
2019-05-30T17:23:33.695Z,1.60
2019-05-30T17:26:04.789Z,1.50
2019-05-30T17:28:35.742Z,1.65
2019-05-30T17:31:06.911Z,1.77
2019-05-30T17:33:39.034Z,1.90
2019-05-30T17:36:10.087Z,1.27
2019-05-30T17:38:41.047Z,1.77
2019-05-30T17:41:12.104Z,1.45
2019-05-30T17:43:43.101Z,1.70
2019-05-30T17:46:14.193Z,2.08
2019-05-30T17:48:45.154Z,1.70
2019-05-30T17:51:16.069Z,1.32
2019-05-30T17:53:47.612Z,1.22
2019-05-30T17:56:19.886Z,1.10
2019-05-30T17:58:50.904Z,1.00
2019-05-30T18:01:22.277Z,1.27
2019-05-30T18:03:53.419Z,1.32
2019-05-30T18:06:24.493Z,1.05
2019-05-30T18:08:55.553Z,1.10
2019-05-30T18:11:26.936Z,1.35
2019-05-30T18:13:58.024Z,1.57
2019-05-30T18:16:29.295Z,1.32
2019-05-30T18:19:00.279Z,1.00
2019-05-30T18:21:31.832Z,1.00
2019-05-30T18:24:02.608Z,0.85
2019-05-30T18:26:33.057Z,0.88
2019-05-30T18:29:03.615Z,0.90
2019-05-30T18:31:34.574Z,1.10
2019-05-30T18:34:05.208Z,1.02
2019-05-30T18:36:39.256Z,0.90
2019-05-30T18:39:10.167Z,0.80
2019-05-30T18:41:41.118Z,0.95
2019-05-30T18:44:12.044Z,1.00
2019-05-30T18:46:43.156Z,1.10
2019-05-30T18:49:13.760Z,1.00
2019-05-30T18:51:44.683Z,0.80
2019-05-30T18:54:15.647Z,1.02
2019-05-30T18:56:46.664Z,1.10
2019-05-30T18:59:26.915Z,1.20
2019-05-30T19:01:57.418Z,1.30
2019-05-30T19:04:27.789Z,1.22
2019-05-30T19:06:58.642Z,1.20
2019-05-30T19:09:29.564Z,1.40
2019-05-30T19:12:00.304Z,1.25
2019-05-30T19:14:33.829Z,2.35
2019-05-30T19:17:03.690Z,1.55
2019-05-30T19:19:34.414Z,1.80
2019-05-30T19:22:05.353Z,1.30
2019-05-30T19:24:36.317Z,1.47
2019-05-30T19:27:09.344Z,1.65
2019-05-30T19:29:40.195Z,1.52
2019-05-30T19:32:11.055Z,1.40
2019-05-30T19:34:41.496Z,1.50
2019-05-30T19:37:11.924Z,1.72
2019-05-30T19:39:42.352Z,1.80
2019-05-30T19:42:12.844Z,1.67
2019-05-30T19:44:43.207Z,1.65
2019-05-30T19:47:13.634Z,1.30
2019-05-30T19:49:44.102Z,1.60
2019-05-30T19:52:15.476Z,1.45
2019-05-30T19:54:45.946Z,1.62
2019-05-30T19:57:16.452Z,1.60
2019-05-30T19:59:46.857Z,1.52
2019-05-30T20:02:36.578Z,1.60
2019-05-30T20:05:08.743Z,2.00
2019-05-30T20:07:39.197Z,1.90
2019-05-30T20:10:13.040Z,1.50
2019-05-30T20:12:43.440Z,1.70
2019-05-30T20:15:14.830Z,1.60
2019-05-30T20:17:46.208Z,1.60
2019-05-30T20:20:17.077Z,1.42
2019-05-30T20:22:47.461Z,1.57
2019-05-30T20:25:19.246Z,1.80
2019-05-30T20:27:49.721Z,1.50
2019-05-30T20:30:21.067Z,1.92
2019-05-30T20:32:52.318Z,1.85
2019-05-30T20:35:22.590Z,1.52
2019-05-30T20:37:53.048Z,1.77
2019-05-30T20:40:23.659Z,1.80
2019-05-30T20:42:54.050Z,1.98
2019-05-30T20:45:25.328Z,1.90
2019-05-30T20:47:56.287Z,1.75
2019-05-30T20:50:26.881Z,1.80
2019-05-30T20:52:57.307Z,1.60
2019-05-30T20:55:27.844Z,1.87
2019-05-30T20:57:58.303Z,1.80
2019-05-30T21:00:42.207Z,1.70
2019-05-30T21:03:12.934Z,1.72
2019-05-30T21:05:45.965Z,1.90
2019-05-30T21:08:20.010Z,1.67
2019-05-30T21:10:54.759Z,1.95
2019-05-30T21:13:25.810Z,1.80
2019-05-30T21:15:58.924Z,1.80
2019-05-30T21:18:30.452Z,2.10
2019-05-30T21:21:00.876Z,2.00
2019-05-30T21:23:31.276Z,2.10
2019-05-30T21:26:01.717Z,2.12
2019-05-30T21:28:32.115Z,2.08
2019-05-30T21:31:03.443Z,2.02
2019-05-30T21:33:34.219Z,2.60
2019-05-30T21:36:04.904Z,2.42
2019-05-30T21:38:35.666Z,2.37
2019-05-30T21:41:06.191Z,2.62
2019-05-30T21:43:38.358Z,2.30
2019-05-30T21:46:08.795Z,2.50
2019-05-30T21:48:39.189Z,2.40
2019-05-30T21:51:09.648Z,2.40
2019-05-30T21:53:40.043Z,2.80
2019-05-30T21:56:12.902Z,2.42
2019-05-30T21:58:42.558Z,2.58
2019-05-30T22:01:26.357Z,4.83
2019-05-30T22:03:56.822Z,2.92
2019-05-30T22:06:28.255Z,2.47
2019-05-30T22:09:02.315Z,2.37
2019-05-30T22:11:31.010Z,2.20
2019-05-30T22:14:01.393Z,2.62
2019-05-30T22:16:31.769Z,2.45
2019-05-30T22:19:02.159Z,2.60
2019-05-30T22:21:32.525Z,2.70
2019-05-30T22:24:02.919Z,2.67
2019-05-30T22:26:33.264Z,2.47
2019-05-30T22:29:03.650Z,2.70
2019-05-30T22:31:34.039Z,3.00
2019-05-30T22:34:04.414Z,2.83
2019-05-30T22:36:34.800Z,2.80
2019-05-30T22:39:08.886Z,2.72
2019-05-30T22:41:38.854Z,2.85
2019-05-30T22:44:09.215Z,3.10
2019-05-30T22:46:39.600Z,2.85
2019-05-30T22:49:09.973Z,3.00
2019-05-30T22:51:40.366Z,3.17
2019-05-30T22:54:10.728Z,3.40
2019-05-30T22:56:41.124Z,3.42
2019-05-30T22:59:11.491Z,3.17
2019-05-30T23:01:41.876Z,3.15
2019-05-30T23:04:12.245Z,3.33
2019-05-30T23:06:42.633Z,3.12
2019-05-30T23:09:13.002Z,3.90
2019-05-30T23:11:43.391Z,4.12
2019-05-30T23:14:13.754Z,4.10
2019-05-30T23:16:44.136Z,4.50
2019-05-30T23:19:14.570Z,4.00
2019-05-30T23:21:44.953Z,4.85
2019-05-30T23:24:15.316Z,4.25
2019-05-30T23:26:45.703Z,4.10
2019-05-30T23:29:16.065Z,4.00
2019-05-30T23:31:46.476Z,4.50
2019-05-30T23:34:17.295Z,4.00
2019-05-30T23:36:48.523Z,3.98
2019-05-30T23:39:19.075Z,3.72
2019-05-30T23:41:49.438Z,3.72
2019-05-30T23:44:19.798Z,4.37
2019-05-30T23:46:51.359Z,3.77
2019-05-30T23:49:21.852Z,4.03
2019-05-30T23:51:52.256Z,4.17
2019-05-30T23:54:22.618Z,4.30
2019-05-30T23:56:54.593Z,4.70
2019-05-30T23:59:25.162Z,4.72
